sensor_id;sensor_type;location;lat;lon;timestamp;P1;durP1;ratioP1;P2;durP2;ratioP2
13411;SDS011;67102;51.666;6.880;2023-01-19T00:02:04;9.30;;;6.80;;
13411;SDS011;67102;51.666;6.880;2023-01-19T00:04:29;8.37;;;6.03;;
13411;SDS011;67102;51.666;6.880;2023-01-19T00:06:55;8.23;;;6.57;;
13411;SDS011;67102;51.666;6.880;2023-01-19T00:09:21;7.57;;;6.20;;
13411;SDS011;67102;51.666;6.880;2023-01-19T00:11:47;10.00;;;6.50;;
13411;SDS011;67102;51.666;6.880;2023-01-19T00:14:13;8.80;;;6.60;;
13411;SDS011;67102;51.666;6.880;2023-01-19T00:16:39;7.27;;;6.33;;
13411;SDS011;67102;51.666;6.880;2023-01-19T00:19:07;8.87;;;6.10;;
13411;SDS011;67102;51.666;6.880;2023-01-19T00:21:33;8.37;;;6.67;;
13411;SDS011;67102;51.666;6.880;2023-01-19T00:24:00;7.57;;;6.07;;
13411;SDS011;67102;51.666;6.880;2023-01-19T00:26:26;8.90;;;6.70;;
13411;SDS011;67102;51.666;6.880;2023-01-19T00:28:52;7.23;;;6.30;;
13411;SDS011;67102;51.666;6.880;2023-01-19T00:31:19;8.63;;;6.67;;
13411;SDS011;67102;51.666;6.880;2023-01-19T00:33:45;8.07;;;6.43;;
13411;SDS011;67102;51.666;6.880;2023-01-19T00:36:12;8.87;;;7.03;;
13411;SDS011;67102;51.666;6.880;2023-01-19T00:38:38;7.10;;;6.40;;
13411;SDS011;67102;51.666;6.880;2023-01-19T00:41:04;8.73;;;6.07;;
13411;SDS011;67102;51.666;6.880;2023-01-19T00:43:31;9.77;;;7.10;;
13411;SDS011;67102;51.666;6.880;2023-01-19T00:45:57;7.97;;;6.57;;
13411;SDS011;67102;51.666;6.880;2023-01-19T00:48:23;7.23;;;6.33;;
13411;SDS011;67102;51.666;6.880;2023-01-19T00:50:49;7.80;;;6.70;;
13411;SDS011;67102;51.666;6.880;2023-01-19T00:53:16;8.27;;;6.80;;
13411;SDS011;67102;51.666;6.880;2023-01-19T00:55:42;8.23;;;6.93;;
13411;SDS011;67102;51.666;6.880;2023-01-19T00:58:08;9.13;;;7.20;;
13411;SDS011;67102;51.666;6.880;2023-01-19T01:00:34;7.67;;;6.87;;
13411;SDS011;67102;51.666;6.880;2023-01-19T01:03:01;10.30;;;7.00;;
13411;SDS011;67102;51.666;6.880;2023-01-19T01:05:27;9.17;;;6.70;;
13411;SDS011;67102;51.666;6.880;2023-01-19T01:07:53;10.13;;;7.77;;
13411;SDS011;67102;51.666;6.880;2023-01-19T01:10:22;7.90;;;7.10;;
13411;SDS011;67102;51.666;6.880;2023-01-19T01:12:50;9.67;;;8.17;;
13411;SDS011;67102;51.666;6.880;2023-01-19T01:15:16;8.10;;;7.13;;
13411;SDS011;67102;51.666;6.880;2023-01-19T01:17:43;9.73;;;7.73;;
13411;SDS011;67102;51.666;6.880;2023-01-19T01:20:10;10.97;;;7.60;;
13411;SDS011;67102;51.666;6.880;2023-01-19T01:22:38;9.13;;;6.90;;
13411;SDS011;67102;51.666;6.880;2023-01-19T01:25:04;9.20;;;8.27;;
13411;SDS011;67102;51.666;6.880;2023-01-19T01:27:32;9.57;;;7.70;;
13411;SDS011;67102;51.666;6.880;2023-01-19T01:29:58;10.23;;;7.83;;
13411;SDS011;67102;51.666;6.880;2023-01-19T01:32:25;10.13;;;7.90;;
13411;SDS011;67102;51.666;6.880;2023-01-19T01:34:50;9.10;;;7.27;;
13411;SDS011;67102;51.666;6.880;2023-01-19T01:37:16;11.27;;;8.43;;
13411;SDS011;67102;51.666;6.880;2023-01-19T01:39:43;9.23;;;7.77;;
13411;SDS011;67102;51.666;6.880;2023-01-19T01:42:13;9.67;;;7.37;;
13411;SDS011;67102;51.666;6.880;2023-01-19T01:44:48;9.10;;;7.03;;
13411;SDS011;67102;51.666;6.880;2023-01-19T01:47:17;11.93;;;8.17;;
13411;SDS011;67102;51.666;6.880;2023-01-19T01:49:50;8.80;;;7.07;;
13411;SDS011;67102;51.666;6.880;2023-01-19T01:54:51;8.20;;;7.40;;
13411;SDS011;67102;51.666;6.880;2023-01-19T01:57:17;8.17;;;7.00;;
13411;SDS011;67102;51.666;6.880;2023-01-19T01:59:44;10.43;;;6.90;;
13411;SDS011;67102;51.666;6.880;2023-01-19T02:02:14;9.53;;;7.63;;
13411;SDS011;67102;51.666;6.880;2023-01-19T02:04:45;9.50;;;7.60;;
13411;SDS011;67102;51.666;6.880;2023-01-19T02:07:14;9.60;;;7.37;;
13411;SDS011;67102;51.666;6.880;2023-01-19T02:09:51;7.30;;;6.53;;
13411;SDS011;67102;51.666;6.880;2023-01-19T02:12:17;9.57;;;7.30;;
13411;SDS011;67102;51.666;6.880;2023-01-19T02:14:43;8.53;;;7.20;;
13411;SDS011;67102;51.666;6.880;2023-01-19T02:17:11;9.50;;;7.30;;
13411;SDS011;67102;51.666;6.880;2023-01-19T02:19:38;9.90;;;7.30;;
13411;SDS011;67102;51.666;6.880;2023-01-19T02:22:08;9.97;;;6.33;;
13411;SDS011;67102;51.666;6.880;2023-01-19T02:24:41;9.03;;;6.80;;
13411;SDS011;67102;51.666;6.880;2023-01-19T02:27:07;8.70;;;7.27;;
13411;SDS011;67102;51.666;6.880;2023-01-19T02:29:35;8.03;;;6.90;;
13411;SDS011;67102;51.666;6.880;2023-01-19T02:32:01;8.53;;;6.83;;
13411;SDS011;67102;51.666;6.880;2023-01-19T02:34:28;7.60;;;6.23;;
13411;SDS011;67102;51.666;6.880;2023-01-19T02:36:55;9.20;;;7.63;;
13411;SDS011;67102;51.666;6.880;2023-01-19T02:39:25;8.30;;;6.67;;
13411;SDS011;67102;51.666;6.880;2023-01-19T02:41:57;8.50;;;7.27;;
13411;SDS011;67102;51.666;6.880;2023-01-19T02:44:28;10.93;;;7.17;;
13411;SDS011;67102;51.666;6.880;2023-01-19T02:46:55;9.00;;;7.60;;
13411;SDS011;67102;51.666;6.880;2023-01-19T02:49:21;8.77;;;7.17;;
13411;SDS011;67102;51.666;6.880;2023-01-19T02:51:49;10.73;;;7.50;;
13411;SDS011;67102;51.666;6.880;2023-01-19T02:54:17;8.67;;;7.60;;
13411;SDS011;67102;51.666;6.880;2023-01-19T02:56:56;8.23;;;7.13;;
13411;SDS011;67102;51.666;6.880;2023-01-19T02:59:47;11.30;;;7.20;;
13411;SDS011;67102;51.666;6.880;2023-01-19T03:02:26;10.20;;;7.50;;
13411;SDS011;67102;51.666;6.880;2023-01-19T03:05:05;9.70;;;8.47;;
13411;SDS011;67102;51.666;6.880;2023-01-19T03:07:46;8.93;;;7.60;;
13411;SDS011;67102;51.666;6.880;2023-01-19T03:10:22;9.17;;;7.53;;
13411;SDS011;67102;51.666;6.880;2023-01-19T03:12:57;9.13;;;7.20;;
13411;SDS011;67102;51.666;6.880;2023-01-19T03:15:27;9.60;;;7.13;;
13411;SDS011;67102;51.666;6.880;2023-01-19T03:17:59;11.43;;;8.20;;
13411;SDS011;67102;51.666;6.880;2023-01-19T03:20:25;8.60;;;6.97;;
13411;SDS011;67102;51.666;6.880;2023-01-19T03:22:52;8.93;;;7.47;;
13411;SDS011;67102;51.666;6.880;2023-01-19T03:25:25;10.57;;;7.73;;
13411;SDS011;67102;51.666;6.880;2023-01-19T03:27:54;8.77;;;7.37;;
13411;SDS011;67102;51.666;6.880;2023-01-19T03:30:25;9.47;;;7.20;;
13411;SDS011;67102;51.666;6.880;2023-01-19T03:32:55;9.80;;;7.47;;
13411;SDS011;67102;51.666;6.880;2023-01-19T03:35:27;8.80;;;7.30;;
13411;SDS011;67102;51.666;6.880;2023-01-19T03:37:57;9.57;;;7.10;;
13411;SDS011;67102;51.666;6.880;2023-01-19T03:40:29;8.90;;;7.33;;
13411;SDS011;67102;51.666;6.880;2023-01-19T03:42:59;8.53;;;7.60;;
13411;SDS011;67102;51.666;6.880;2023-01-19T03:45:26;9.13;;;6.83;;
13411;SDS011;67102;51.666;6.880;2023-01-19T03:47:52;8.03;;;6.83;;
13411;SDS011;67102;51.666;6.880;2023-01-19T03:50:21;9.73;;;7.50;;
13411;SDS011;67102;51.666;6.880;2023-01-19T03:52:58;9.33;;;7.63;;
13411;SDS011;67102;51.666;6.880;2023-01-19T03:55:26;8.63;;;6.60;;
13411;SDS011;67102;51.666;6.880;2023-01-19T03:57:52;8.63;;;6.40;;
13411;SDS011;67102;51.666;6.880;2023-01-19T04:00:19;7.80;;;7.00;;
13411;SDS011;67102;51.666;6.880;2023-01-19T04:02:45;7.50;;;6.70;;
13411;SDS011;67102;51.666;6.880;2023-01-19T04:05:11;8.87;;;7.23;;
13411;SDS011;67102;51.666;6.880;2023-01-19T04:07:37;9.17;;;6.60;;
13411;SDS011;67102;51.666;6.880;2023-01-19T04:10:03;7.73;;;6.13;;
13411;SDS011;67102;51.666;6.880;2023-01-19T04:12:30;9.80;;;8.07;;
13411;SDS011;67102;51.666;6.880;2023-01-19T04:14:56;9.67;;;6.83;;
13411;SDS011;67102;51.666;6.880;2023-01-19T04:17:23;8.33;;;6.57;;
13411;SDS011;67102;51.666;6.880;2023-01-19T04:19:49;8.97;;;7.20;;
13411;SDS011;67102;51.666;6.880;2023-01-19T04:22:15;9.43;;;7.40;;
13411;SDS011;67102;51.666;6.880;2023-01-19T04:24:42;9.50;;;7.17;;
13411;SDS011;67102;51.666;6.880;2023-01-19T04:27:08;7.90;;;6.47;;
13411;SDS011;67102;51.666;6.880;2023-01-19T04:29:35;7.07;;;6.37;;
13411;SDS011;67102;51.666;6.880;2023-01-19T04:32:01;8.83;;;6.90;;
13411;SDS011;67102;51.666;6.880;2023-01-19T04:34:28;8.00;;;6.57;;
13411;SDS011;67102;51.666;6.880;2023-01-19T04:36:54;9.23;;;7.20;;
13411;SDS011;67102;51.666;6.880;2023-01-19T04:39:20;7.67;;;6.87;;
13411;SDS011;67102;51.666;6.880;2023-01-19T04:41:46;7.83;;;6.43;;
13411;SDS011;67102;51.666;6.880;2023-01-19T04:44:12;8.40;;;6.87;;
13411;SDS011;67102;51.666;6.880;2023-01-19T04:46:38;7.27;;;6.57;;
13411;SDS011;67102;51.666;6.880;2023-01-19T04:49:04;9.57;;;6.80;;
13411;SDS011;67102;51.666;6.880;2023-01-19T04:51:32;7.80;;;6.60;;
13411;SDS011;67102;51.666;6.880;2023-01-19T04:53:58;8.00;;;6.67;;
13411;SDS011;67102;51.666;6.880;2023-01-19T04:56:24;7.03;;;6.33;;
13411;SDS011;67102;51.666;6.880;2023-01-19T04:58:50;8.37;;;7.07;;
13411;SDS011;67102;51.666;6.880;2023-01-19T05:01:16;8.23;;;7.33;;
13411;SDS011;67102;51.666;6.880;2023-01-19T05:03:42;8.40;;;6.97;;
13411;SDS011;67102;51.666;6.880;2023-01-19T05:06:07;7.80;;;6.80;;
13411;SDS011;67102;51.666;6.880;2023-01-19T05:08:35;7.80;;;7.00;;
13411;SDS011;67102;51.666;6.880;2023-01-19T05:11:01;7.70;;;6.90;;
13411;SDS011;67102;51.666;6.880;2023-01-19T05:13:27;8.93;;;7.73;;
13411;SDS011;67102;51.666;6.880;2023-01-19T05:15:53;8.97;;;7.20;;
13411;SDS011;67102;51.666;6.880;2023-01-19T05:18:19;9.30;;;7.60;;
13411;SDS011;67102;51.666;6.880;2023-01-19T05:20:45;8.63;;;7.13;;
13411;SDS011;67102;51.666;6.880;2023-01-19T05:23:11;7.17;;;6.47;;
13411;SDS011;67102;51.666;6.880;2023-01-19T05:25:38;7.73;;;6.93;;
13411;SDS011;67102;51.666;6.880;2023-01-19T05:28:04;7.70;;;6.70;;
13411;SDS011;67102;51.666;6.880;2023-01-19T05:30:30;7.10;;;6.40;;
13411;SDS011;67102;51.666;6.880;2023-01-19T05:32:56;7.30;;;6.60;;
13411;SDS011;67102;51.666;6.880;2023-01-19T05:35:22;8.07;;;7.27;;
13411;SDS011;67102;51.666;6.880;2023-01-19T05:37:48;8.03;;;7.20;;
13411;SDS011;67102;51.666;6.880;2023-01-19T05:40:14;7.37;;;6.67;;
13411;SDS011;67102;51.666;6.880;2023-01-19T05:42:42;7.03;;;5.97;;
13411;SDS011;67102;51.666;6.880;2023-01-19T05:45:08;6.63;;;6.03;;
13411;SDS011;67102;51.666;6.880;2023-01-19T05:47:35;7.43;;;6.60;;
13411;SDS011;67102;51.666;6.880;2023-01-19T05:50:00;7.77;;;6.97;;
13411;SDS011;67102;51.666;6.880;2023-01-19T05:52:27;7.07;;;6.37;;
13411;SDS011;67102;51.666;6.880;2023-01-19T05:54:53;7.20;;;6.40;;
13411;SDS011;67102;51.666;6.880;2023-01-19T05:57:19;6.20;;;5.60;;
13411;SDS011;67102;51.666;6.880;2023-01-19T05:59:46;6.60;;;5.90;;
13411;SDS011;67102;51.666;6.880;2023-01-19T06:02:12;5.87;;;5.37;;
13411;SDS011;67102;51.666;6.880;2023-01-19T06:04:38;5.93;;;5.37;;
13411;SDS011;67102;51.666;6.880;2023-01-19T06:07:04;5.37;;;4.87;;
13411;SDS011;67102;51.666;6.880;2023-01-19T06:09:31;6.03;;;5.00;;
13411;SDS011;67102;51.666;6.880;2023-01-19T06:11:57;5.40;;;4.90;;
13411;SDS011;67102;51.666;6.880;2023-01-19T06:14:23;5.20;;;4.70;;
13411;SDS011;67102;51.666;6.880;2023-01-19T06:16:50;5.13;;;4.67;;
13411;SDS011;67102;51.666;6.880;2023-01-19T06:19:17;4.87;;;4.03;;
13411;SDS011;67102;51.666;6.880;2023-01-19T06:21:43;4.90;;;4.40;;
13411;SDS011;67102;51.666;6.880;2023-01-19T06:24:12;4.47;;;4.07;;
13411;SDS011;67102;51.666;6.880;2023-01-19T06:26:38;4.60;;;4.20;;
13411;SDS011;67102;51.666;6.880;2023-01-19T06:29:04;4.60;;;4.20;;
13411;SDS011;67102;51.666;6.880;2023-01-19T06:31:30;5.57;;;4.90;;
13411;SDS011;67102;51.666;6.880;2023-01-19T06:33:57;4.77;;;4.37;;
13411;SDS011;67102;51.666;6.880;2023-01-19T06:36:23;4.37;;;3.97;;
13411;SDS011;67102;51.666;6.880;2023-01-19T06:38:49;4.80;;;4.40;;
13411;SDS011;67102;51.666;6.880;2023-01-19T06:41:15;4.50;;;4.13;;
13411;SDS011;67102;51.666;6.880;2023-01-19T06:43:41;5.70;;;5.20;;
13411;SDS011;67102;51.666;6.880;2023-01-19T06:46:08;6.07;;;5.37;;
13411;SDS011;67102;51.666;6.880;2023-01-19T06:48:34;5.80;;;5.03;;
13411;SDS011;67102;51.666;6.880;2023-01-19T06:51:01;5.50;;;4.63;;
13411;SDS011;67102;51.666;6.880;2023-01-19T06:53:27;5.07;;;4.57;;
13411;SDS011;67102;51.666;6.880;2023-01-19T06:55:56;5.50;;;5.00;;
13411;SDS011;67102;51.666;6.880;2023-01-19T06:58:23;5.17;;;4.67;;
13411;SDS011;67102;51.666;6.880;2023-01-19T07:00:49;5.07;;;4.57;;
13411;SDS011;67102;51.666;6.880;2023-01-19T07:03:17;5.43;;;4.93;;
13411;SDS011;67102;51.666;6.880;2023-01-19T07:05:44;6.00;;;4.90;;
13411;SDS011;67102;51.666;6.880;2023-01-19T07:08:12;6.17;;;5.03;;
13411;SDS011;67102;51.666;6.880;2023-01-19T07:10:38;5.63;;;5.13;;
13411;SDS011;67102;51.666;6.880;2023-01-19T07:13:04;5.00;;;4.50;;
13411;SDS011;67102;51.666;6.880;2023-01-19T07:15:30;6.20;;;4.30;;
13411;SDS011;67102;51.666;6.880;2023-01-19T07:17:56;4.73;;;4.20;;
13411;SDS011;67102;51.666;6.880;2023-01-19T07:20:22;4.80;;;4.10;;
13411;SDS011;67102;51.666;6.880;2023-01-19T07:22:53;4.97;;;4.20;;
13411;SDS011;67102;51.666;6.880;2023-01-19T07:25:21;4.43;;;3.80;;
13411;SDS011;67102;51.666;6.880;2023-01-19T07:27:47;4.63;;;4.23;;
13411;SDS011;67102;51.666;6.880;2023-01-19T07:30:13;3.80;;;3.50;;
13411;SDS011;67102;51.666;6.880;2023-01-19T07:32:40;4.37;;;3.90;;
13411;SDS011;67102;51.666;6.880;2023-01-19T07:35:06;3.93;;;3.63;;
13411;SDS011;67102;51.666;6.880;2023-01-19T07:37:33;4.20;;;3.80;;
13411;SDS011;67102;51.666;6.880;2023-01-19T07:39:59;4.07;;;3.43;;
13411;SDS011;67102;51.666;6.880;2023-01-19T07:42:26;3.83;;;3.50;;
13411;SDS011;67102;51.666;6.880;2023-01-19T07:44:52;4.90;;;3.67;;
13411;SDS011;67102;51.666;6.880;2023-01-19T07:47:18;5.77;;;4.30;;
13411;SDS011;67102;51.666;6.880;2023-01-19T07:49:44;4.53;;;3.60;;
13411;SDS011;67102;51.666;6.880;2023-01-19T07:52:10;4.30;;;3.90;;
13411;SDS011;67102;51.666;6.880;2023-01-19T07:54:36;4.53;;;3.57;;
13411;SDS011;67102;51.666;6.880;2023-01-19T07:57:02;4.00;;;3.60;;
13411;SDS011;67102;51.666;6.880;2023-01-19T07:59:30;5.03;;;3.83;;
13411;SDS011;67102;51.666;6.880;2023-01-19T08:01:56;4.83;;;4.13;;
13411;SDS011;67102;51.666;6.880;2023-01-19T08:04:23;4.30;;;3.80;;
13411;SDS011;67102;51.666;6.880;2023-01-19T08:06:49;5.77;;;3.80;;
13411;SDS011;67102;51.666;6.880;2023-01-19T08:09:17;5.30;;;4.03;;
13411;SDS011;67102;51.666;6.880;2023-01-19T08:11:43;5.20;;;4.00;;
13411;SDS011;67102;51.666;6.880;2023-01-19T08:14:09;4.73;;;4.23;;
13411;SDS011;67102;51.666;6.880;2023-01-19T08:16:36;4.23;;;3.83;;
13411;SDS011;67102;51.666;6.880;2023-01-19T08:19:02;4.50;;;4.10;;
13411;SDS011;67102;51.666;6.880;2023-01-19T08:21:29;4.30;;;3.90;;
13411;SDS011;67102;51.666;6.880;2023-01-19T08:23:55;4.30;;;3.90;;
13411;SDS011;67102;51.666;6.880;2023-01-19T08:26:24;4.80;;;4.00;;
13411;SDS011;67102;51.666;6.880;2023-01-19T08:28:53;4.47;;;3.80;;
13411;SDS011;67102;51.666;6.880;2023-01-19T08:31:20;4.57;;;4.17;;
13411;SDS011;67102;51.666;6.880;2023-01-19T08:33:48;5.00;;;4.33;;
13411;SDS011;67102;51.666;6.880;2023-01-19T08:36:14;5.53;;;4.90;;
13411;SDS011;67102;51.666;6.880;2023-01-19T08:38:40;5.73;;;5.10;;
13411;SDS011;67102;51.666;6.880;2023-01-19T08:41:08;5.70;;;5.20;;
13411;SDS011;67102;51.666;6.880;2023-01-19T08:43:34;6.60;;;5.47;;
13411;SDS011;67102;51.666;6.880;2023-01-19T08:46:00;6.87;;;6.20;;
13411;SDS011;67102;51.666;6.880;2023-01-19T08:48:26;5.90;;;5.40;;
13411;SDS011;67102;51.666;6.880;2023-01-19T08:50:55;6.87;;;6.20;;
13411;SDS011;67102;51.666;6.880;2023-01-19T08:53:22;7.63;;;6.93;;
13411;SDS011;67102;51.666;6.880;2023-01-19T08:55:48;6.43;;;5.83;;
13411;SDS011;67102;51.666;6.880;2023-01-19T08:58:17;7.47;;;6.30;;
13411;SDS011;67102;51.666;6.880;2023-01-19T09:00:43;8.23;;;7.13;;
13411;SDS011;67102;51.666;6.880;2023-01-19T09:03:10;10.03;;;6.93;;
13411;SDS011;67102;51.666;6.880;2023-01-19T09:05:37;7.73;;;6.93;;
13411;SDS011;67102;51.666;6.880;2023-01-19T09:08:06;7.60;;;6.80;;
13411;SDS011;67102;51.666;6.880;2023-01-19T09:10:34;7.47;;;6.67;;
13411;SDS011;67102;51.666;6.880;2023-01-19T09:13:01;7.07;;;6.40;;
13411;SDS011;67102;51.666;6.880;2023-01-19T09:15:28;7.40;;;6.70;;
13411;SDS011;67102;51.666;6.880;2023-01-19T09:17:54;7.17;;;6.47;;
13411;SDS011;67102;51.666;6.880;2023-01-19T09:20:20;8.47;;;6.80;;
13411;SDS011;67102;51.666;6.880;2023-01-19T09:22:46;9.30;;;7.70;;
13411;SDS011;67102;51.666;6.880;2023-01-19T09:25:13;7.43;;;6.67;;
13411;SDS011;67102;51.666;6.880;2023-01-19T09:27:40;8.07;;;6.67;;
13411;SDS011;67102;51.666;6.880;2023-01-19T09:30:06;9.00;;;8.07;;
13411;SDS011;67102;51.666;6.880;2023-01-19T09:32:34;7.67;;;6.87;;
13411;SDS011;67102;51.666;6.880;2023-01-19T09:35:00;9.97;;;7.40;;
13411;SDS011;67102;51.666;6.880;2023-01-19T09:37:26;8.60;;;7.70;;
13411;SDS011;67102;51.666;6.880;2023-01-19T09:39:52;8.83;;;7.93;;
13411;SDS011;67102;51.666;6.880;2023-01-19T09:42:26;8.07;;;7.27;;
13411;SDS011;67102;51.666;6.880;2023-01-19T09:44:58;8.57;;;7.67;;
13411;SDS011;67102;51.666;6.880;2023-01-19T09:47:27;8.83;;;7.93;;
13411;SDS011;67102;51.666;6.880;2023-01-19T09:49:56;8.50;;;7.57;;
13411;SDS011;67102;51.666;6.880;2023-01-19T09:52:28;9.53;;;8.00;;
13411;SDS011;67102;51.666;6.880;2023-01-19T09:55:00;9.00;;;8.00;;
13411;SDS011;67102;51.666;6.880;2023-01-19T09:57:27;11.07;;;8.40;;
13411;SDS011;67102;51.666;6.880;2023-01-19T09:59:53;11.03;;;8.70;;
13411;SDS011;67102;51.666;6.880;2023-01-19T10:02:21;9.07;;;7.43;;
13411;SDS011;67102;51.666;6.880;2023-01-19T10:04:58;10.07;;;8.13;;
13411;SDS011;67102;51.666;6.880;2023-01-19T10:07:30;9.93;;;8.77;;
13411;SDS011;67102;51.666;6.880;2023-01-19T10:10:09;8.70;;;7.80;;
13411;SDS011;67102;51.666;6.880;2023-01-19T10:12:54;10.07;;;8.47;;
13411;SDS011;67102;51.666;6.880;2023-01-19T10:15:41;9.60;;;8.60;;
13411;SDS011;67102;51.666;6.880;2023-01-19T10:18:16;9.83;;;8.20;;
13411;SDS011;67102;51.666;6.880;2023-01-19T10:20:48;9.57;;;8.13;;
13411;SDS011;67102;51.666;6.880;2023-01-19T10:23:24;10.87;;;8.60;;
13411;SDS011;67102;51.666;6.880;2023-01-19T10:26:04;9.50;;;8.53;;
13411;SDS011;67102;51.666;6.880;2023-01-19T10:28:36;10.13;;;9.00;;
13411;SDS011;67102;51.666;6.880;2023-01-19T10:31:04;10.43;;;8.80;;
13411;SDS011;67102;51.666;6.880;2023-01-19T10:33:30;10.93;;;9.10;;
13411;SDS011;67102;51.666;6.880;2023-01-19T10:35:57;11.00;;;8.73;;
13411;SDS011;67102;51.666;6.880;2023-01-19T10:38:23;10.50;;;8.50;;
13411;SDS011;67102;51.666;6.880;2023-01-19T10:40:52;11.43;;;9.23;;
13411;SDS011;67102;51.666;6.880;2023-01-19T10:46:15;9.27;;;8.37;;
13411;SDS011;67102;51.666;6.880;2023-01-19T10:48:47;9.57;;;8.60;;
13411;SDS011;67102;51.666;6.880;2023-01-19T10:51:14;10.27;;;8.50;;
13411;SDS011;67102;51.666;6.880;2023-01-19T10:53:41;11.03;;;8.10;;
13411;SDS011;67102;51.666;6.880;2023-01-19T10:56:20;10.17;;;8.70;;
13411;SDS011;67102;51.666;6.880;2023-01-19T10:58:50;13.77;;;9.47;;
13411;SDS011;67102;51.666;6.880;2023-01-19T11:01:17;10.10;;;8.53;;
13411;SDS011;67102;51.666;6.880;2023-01-19T11:03:45;10.43;;;8.13;;
13411;SDS011;67102;51.666;6.880;2023-01-19T11:06:19;13.47;;;9.00;;
13411;SDS011;67102;51.666;6.880;2023-01-19T11:08:49;11.97;;;8.83;;
13411;SDS011;67102;51.666;6.880;2023-01-19T11:11:17;11.97;;;8.90;;
13411;SDS011;67102;51.666;6.880;2023-01-19T11:13:46;12.00;;;9.63;;
13411;SDS011;67102;51.666;6.880;2023-01-19T11:16:32;11.43;;;9.10;;
13411;SDS011;67102;51.666;6.880;2023-01-19T11:18:59;10.77;;;8.97;;
13411;SDS011;67102;51.666;6.880;2023-01-19T11:21:26;12.27;;;9.33;;
13411;SDS011;67102;51.666;6.880;2023-01-19T11:23:55;11.97;;;8.90;;
13411;SDS011;67102;51.666;6.880;2023-01-19T11:26:24;11.97;;;9.30;;
13411;SDS011;67102;51.666;6.880;2023-01-19T11:28:53;13.93;;;8.87;;
13411;SDS011;67102;51.666;6.880;2023-01-19T11:31:29;12.00;;;8.73;;
13411;SDS011;67102;51.666;6.880;2023-01-19T11:33:58;11.93;;;9.17;;
13411;SDS011;67102;51.666;6.880;2023-01-19T11:36:26;12.60;;;7.97;;
13411;SDS011;67102;51.666;6.880;2023-01-19T11:38:56;10.17;;;7.67;;
13411;SDS011;67102;51.666;6.880;2023-01-19T11:41:25;8.40;;;7.30;;
13411;SDS011;67102;51.666;6.880;2023-01-19T11:43:53;11.03;;;8.00;;
13411;SDS011;67102;51.666;6.880;2023-01-19T11:46:22;9.80;;;7.60;;
13411;SDS011;67102;51.666;6.880;2023-01-19T11:48:54;10.97;;;8.03;;
13411;SDS011;67102;51.666;6.880;2023-01-19T11:51:24;11.77;;;8.23;;
13411;SDS011;67102;51.666;6.880;2023-01-19T11:53:55;9.10;;;7.27;;
13411;SDS011;67102;51.666;6.880;2023-01-19T11:56:21;10.93;;;8.60;;
13411;SDS011;67102;51.666;6.880;2023-01-19T11:58:50;11.53;;;8.17;;
13411;SDS011;67102;51.666;6.880;2023-01-19T12:01:18;10.50;;;7.90;;
13411;SDS011;67102;51.666;6.880;2023-01-19T12:03:50;12.13;;;8.33;;
13411;SDS011;67102;51.666;6.880;2023-01-19T12:06:24;11.03;;;7.97;;
13411;SDS011;67102;51.666;6.880;2023-01-19T12:08:55;11.53;;;7.07;;
13411;SDS011;67102;51.666;6.880;2023-01-19T12:11:25;10.50;;;8.53;;
13411;SDS011;67102;51.666;6.880;2023-01-19T12:13:55;11.53;;;8.83;;
13411;SDS011;67102;51.666;6.880;2023-01-19T12:16:22;10.83;;;7.97;;
13411;SDS011;67102;51.666;6.880;2023-01-19T12:18:55;12.13;;;8.03;;
13411;SDS011;67102;51.666;6.880;2023-01-19T12:21:24;14.67;;;9.07;;
13411;SDS011;67102;51.666;6.880;2023-01-19T12:23:52;14.63;;;8.70;;
13411;SDS011;67102;51.666;6.880;2023-01-19T12:26:29;13.23;;;8.97;;
13411;SDS011;67102;51.666;6.880;2023-01-19T12:29:02;12.43;;;8.50;;
13411;SDS011;67102;51.666;6.880;2023-01-19T12:31:37;11.43;;;8.83;;
13411;SDS011;67102;51.666;6.880;2023-01-19T12:40:00;15.50;;;9.33;;
13411;SDS011;67102;51.666;6.880;2023-01-19T12:42:42;14.07;;;9.60;;
13411;SDS011;67102;51.666;6.880;2023-01-19T12:45:12;14.77;;;9.57;;
13411;SDS011;67102;51.666;6.880;2023-01-19T12:47:41;12.10;;;9.33;;
13411;SDS011;67102;51.666;6.880;2023-01-19T12:50:16;12.47;;;8.57;;
13411;SDS011;67102;51.666;6.880;2023-01-19T12:52:46;11.97;;;8.87;;
13411;SDS011;67102;51.666;6.880;2023-01-19T12:55:16;14.53;;;9.80;;
13411;SDS011;67102;51.666;6.880;2023-01-19T12:57:48;11.97;;;8.70;;
13411;SDS011;67102;51.666;6.880;2023-01-19T13:00:28;12.33;;;8.80;;
13411;SDS011;67102;51.666;6.880;2023-01-19T13:03:04;10.03;;;7.83;;
13411;SDS011;67102;51.666;6.880;2023-01-19T13:06:11;12.53;;;9.57;;
13411;SDS011;67102;51.666;6.880;2023-01-19T13:11:27;14.67;;;10.13;;
13411;SDS011;67102;51.666;6.880;2023-01-19T13:17:22;16.03;;;10.30;;
13411;SDS011;67102;51.666;6.880;2023-01-19T13:25:46;14.40;;;9.93;;
13411;SDS011;67102;51.666;6.880;2023-01-19T13:28:16;13.97;;;9.83;;
13411;SDS011;67102;51.666;6.880;2023-01-19T13:30:50;16.10;;;10.70;;
13411;SDS011;67102;51.666;6.880;2023-01-19T13:33:20;16.00;;;10.10;;
13411;SDS011;67102;51.666;6.880;2023-01-19T13:35:50;14.70;;;10.30;;
13411;SDS011;67102;51.666;6.880;2023-01-19T13:38:21;13.83;;;9.63;;
13411;SDS011;67102;51.666;6.880;2023-01-19T13:40:47;11.70;;;8.87;;
13411;SDS011;67102;51.666;6.880;2023-01-19T13:43:14;14.53;;;9.50;;
13411;SDS011;67102;51.666;6.880;2023-01-19T13:45:46;11.37;;;8.93;;
13411;SDS011;67102;51.666;6.880;2023-01-19T13:48:15;14.27;;;9.20;;
13411;SDS011;67102;51.666;6.880;2023-01-19T13:50:42;14.03;;;9.13;;
13411;SDS011;67102;51.666;6.880;2023-01-19T13:53:24;12.73;;;9.00;;
13411;SDS011;67102;51.666;6.880;2023-01-19T13:56:04;11.07;;;7.83;;
13411;SDS011;67102;51.666;6.880;2023-01-19T13:58:32;14.80;;;9.07;;
13411;SDS011;67102;51.666;6.880;2023-01-19T14:00:58;13.47;;;9.17;;
13411;SDS011;67102;51.666;6.880;2023-01-19T14:03:24;14.17;;;9.70;;
13411;SDS011;67102;51.666;6.880;2023-01-19T14:05:50;12.77;;;9.70;;
13411;SDS011;67102;51.666;6.880;2023-01-19T14:08:19;13.73;;;9.73;;
13411;SDS011;67102;51.666;6.880;2023-01-19T14:10:58;13.47;;;9.37;;
13411;SDS011;67102;51.666;6.880;2023-01-19T14:13:25;11.27;;;9.33;;
13411;SDS011;67102;51.666;6.880;2023-01-19T14:15:54;11.90;;;9.00;;
13411;SDS011;67102;51.666;6.880;2023-01-19T14:18:23;13.20;;;8.87;;
13411;SDS011;67102;51.666;6.880;2023-01-19T14:20:52;11.17;;;8.97;;
13411;SDS011;67102;51.666;6.880;2023-01-19T14:23:38;11.00;;;8.40;;
13411;SDS011;67102;51.666;6.880;2023-01-19T14:32:11;11.73;;;7.77;;
13411;SDS011;67102;51.666;6.880;2023-01-19T14:34:40;10.37;;;8.20;;
13411;SDS011;67102;51.666;6.880;2023-01-19T14:37:15;12.63;;;8.67;;
13411;SDS011;67102;51.666;6.880;2023-01-19T14:39:54;10.13;;;7.97;;
13411;SDS011;67102;51.666;6.880;2023-01-19T14:42:27;9.30;;;7.97;;
13411;SDS011;67102;51.666;6.880;2023-01-19T14:44:57;11.10;;;8.07;;
13411;SDS011;67102;51.666;6.880;2023-01-19T14:47:31;12.07;;;8.17;;
13411;SDS011;67102;51.666;6.880;2023-01-19T14:50:05;10.83;;;7.57;;
13411;SDS011;67102;51.666;6.880;2023-01-19T14:52:43;12.27;;;8.60;;
13411;SDS011;67102;51.666;6.880;2023-01-19T14:55:18;9.30;;;6.83;;
13411;SDS011;67102;51.666;6.880;2023-01-19T14:57:49;10.10;;;7.70;;
13411;SDS011;67102;51.666;6.880;2023-01-19T15:00:16;10.57;;;8.00;;
13411;SDS011;67102;51.666;6.880;2023-01-19T15:02:44;10.30;;;8.00;;
13411;SDS011;67102;51.666;6.880;2023-01-19T15:05:10;10.60;;;7.17;;
13411;SDS011;67102;51.666;6.880;2023-01-19T15:07:36;9.77;;;7.80;;
13411;SDS011;67102;51.666;6.880;2023-01-19T15:10:08;11.10;;;7.73;;
13411;SDS011;67102;51.666;6.880;2023-01-19T15:12:41;12.03;;;7.73;;
13411;SDS011;67102;51.666;6.880;2023-01-19T15:15:13;11.80;;;7.67;;
13411;SDS011;67102;51.666;6.880;2023-01-19T15:17:40;10.70;;;7.40;;
13411;SDS011;67102;51.666;6.880;2023-01-19T15:20:10;10.67;;;7.53;;
13411;SDS011;67102;51.666;6.880;2023-01-19T15:22:40;9.97;;;7.47;;